Monday, December 06, 2021 (12:34 UTC)
OPMET DATA
 
Terminal Aerodrome Forecast (TAF) and METAR
TAFs are issued by Aviation Meteorological Office, for Abu Dhabi (OMAA), Bateen (OMAD), Al Ain (OMAL), Dubai (OMDB), Al Maktoum (OMDW), Sharjah (OMSJ), Ras Al Khaimah (OMRK) and Fujairah (OMFJ) airports. These TAFs are issued every 6 hours and are valid for a 30 hour period. METARs (Aviation Routine Weather Reports) are updated hourly.
Show ICAO codes
Select OPMET type:        SEARCH   PRINT
Aviation Meteorology - National Center of Meteorology (NCM)
Telephone: +971 2 5757346 / 5053676
Email: metweb@adiamet.gov.ae
Website: www.avmet.ae
METAR OMAA 061200Z 33011KT CAVOK 26/15 Q1016 NOSIG=
METAR OMAD 061200Z 27006KT 240V310 CAVOK 26/14 Q1016 NOSIG=
METAR OMAL 061200Z 27006KT CAVOK 27/10 Q1017 NOSIG=
METAR OMDB 061200Z 29009KT 180V320 9999 FEW040 27/14 Q1016 NOSIG=
METAR OMDW 061200Z 31009KT CAVOK 26/15 Q1017 NOSIG=
METAR OMFJ 061200Z 09006KT 050V120 CAVOK 26/17 Q1016 A3000=
METAR OMSJ 061200Z 29011KT CAVOK 26/13 Q1016 NOSIG=
METAR OMRK 061200Z 30009KT CAVOK 27/14 Q1016 A3002=
METAR OTBD 061200Z 23005KT 190V270 CAVOK 26/00 Q1017 NOSIG=
METAR OTHH 061200Z 15007KT 110V170 CAVOK 25/08 Q1016 NOSIG=
METAR OBBI 061200Z 17006KT 130V200 CAVOK 24/09 Q1016 NOSIG=
METAR OEDF 061200Z 15013KT CAVOK 27/M02 Q1015 NOSIG=
METAR OEDR 061200Z 14009KT CAVOK 24/04 Q1014=
METAR OEJN 061200Z 27011KT CAVOK 31/19 Q1012 NOSIG=
METAR OEMA 061200Z 10005KT CAVOK 28/10 Q1018 NOSIG=
METAR OEPA 061200Z 33012KT CAVOK 25/01 Q1017 NOSIG=
METAR OERF 061200Z 32018KT CAVOK 21/M01 Q1018 NOSIG=
METAR OERK 061200Z 34009KT 7000 NSC 28/03 Q1018 NOSIG=
METAR OERR 061200Z 07007KT CAVOK 19/M01 Q1020 NOSIG=
METAR OERY 061000Z 35005KT CAVOK 27/01 Q1019=
METAR OESH 061200Z 05005KT CAVOK 28/01 Q1018 NOSIG=
METAR OETB 061200Z 15010KT CAVOK 21/M03 Q1019 NOSIG=
METAR OETF 061200Z 20004KT CAVOK 24/07 Q1023 NOSIG=
METAR OETR 061200Z 00000KT CAVOK 19/05 Q1021 NOSIG=
METAR OEWD 061200Z 09006KT CAVOK 27/09 Q1017 NOSIG=
METAR OEWJ 061200Z 27009KT CAVOK 25/15 Q1015 NOSIG=
METAR OEYN 061200Z 23010KT 9999 FEW040 32/13 Q1012 NOSIG=
METAR OKBK 061200Z 34008KT 8000 NSC 26/02 Q1015 NOSIG=
METAR OOMS 061150Z 04007KT 9999 FEW030 26/18 Q1015 NOSIG=
METAR OOSA 061150Z 13007KT 110V170 9999 FEW025 27/16 Q1016 NOSIG=
METAR OYSN NIL=
METAR OYAA NIL=
 
Monday, December 06, 2021 (12:34 UTC)